HEMA 020500Z 34020KT CAVOK 32/14 Q1010 NOSIG
From batch tds/metars/production/2022/10/2/h05_m24_metars.cache.csv.gz
Observed at (about 2 hours ago)
Identifier HEMA
HEMA 020400Z 32020KT CAVOK 30/14 Q1009 NOSIG
From batch tds/metars/production/2022/10/2/h04_m25_metars.cache.csv.gz
Observed at (about 3 hours ago)
Identifier HEMA
HEMA 020300Z 32018KT CAVOK 30/14 Q1009 NOSIG
From batch tds/metars/production/2022/10/2/h03_m55_metars.cache.csv.gz
Observed at (about 4 hours ago)
Identifier HEMA
HEMA 020100Z 31014KT CAVOK 31/11 Q1009 NOSIG
From batch tds/metars/production/2022/10/2/h01_m29_metars.cache.csv.gz
Observed at (about 6 hours ago)
Identifier HEMA
HEMA 020000Z 32016KT CAVOK 32/11 Q1009 NOSIG
From batch tds/metars/production/2022/10/2/h00_m21_metars.cache.csv.gz
Observed at (about 7 hours ago)
Identifier HEMA
HEMA 012300Z 30011KT CAVOK 32/06 Q1008 NOSIG
From batch tds/metars/production/2022/10/1/h23_m23_metars.cache.csv.gz
Observed at (about 8 hours ago)
Identifier HEMA
HEMA 012200Z 30012KT CAVOK 32/07 Q1008 NOSIG
From batch tds/metars/production/2022/10/1/h22_m22_metars.cache.csv.gz
Observed at (about 9 hours ago)
Identifier HEMA
HEMA 012100Z 31013KT CAVOK 33/08 Q1009 NOSIG
From batch tds/metars/production/2022/10/1/h21_m29_metars.cache.csv.gz
Observed at (about 10 hours ago)
Identifier HEMA
HEMA 012000Z 30010KT CAVOK 30/05 Q1010 NOSIG
From batch tds/metars/production/2022/10/1/h20_m27_metars.cache.csv.gz
Observed at (about 11 hours ago)
Identifier HEMA
HEMA 011900Z 31011KT CAVOK 31/05 Q1010 NOSIG
From batch tds/metars/production/2022/10/1/h19_m51_metars.cache.csv.gz
Observed at (about 12 hours ago)
Identifier HEMA
HEMA 011800Z 30012KT CAVOK 33/05 Q1009 NOSIG
From batch tds/metars/production/2022/10/1/h18_m51_metars.cache.csv.gz
Observed at (about 13 hours ago)
Identifier HEMA
HEMA 011400Z 34020KT CAVOK 37/16 Q1010 NOSIG
From batch tds/metars/production/2022/10/1/h14_m22_metars.cache.csv.gz
Observed at (about 17 hours ago)
Identifier HEMA
HEMA 011300Z 35020KT CAVOK 36/15 Q1010 NOSIG
From batch tds/metars/production/2022/10/1/h13_m52_metars.cache.csv.gz
Observed at (about 18 hours ago)
Identifier HEMA
HEMA 011000Z 35022KT CAVOK 36/17 Q1012 NOSIG
From batch tds/metars/production/2022/10/1/h10_m25_metars.cache.csv.gz
Observed at (about 21 hours ago)
Identifier HEMA
HEMA 010800Z 35023KT CAVOK 35/17 Q1014 NOSIG
From batch tds/metars/production/2022/10/1/h08_m29_metars.cache.csv.gz
Observed at (about 23 hours ago)
Identifier HEMA
HEMA 010700Z 34024KT CAVOK 34/18 Q1013 NOSIG
From batch tds/metars/production/2022/10/1/h07_m29_metars.cache.csv.gz
Observed at (about 24 hours ago)
Identifier HEMA
HEMA 010600Z 33022KT CAVOK 33/18 Q1013 NOSIG
From batch tds/metars/production/2022/10/1/h06_m55_metars.cache.csv.gz
Observed at (1 day ago)
Identifier HEMA
HEMA 010400Z 33020KT CAVOK 31/19 Q1011 NOSIG
From batch tds/metars/production/2022/10/1/h04_m47_metars.cache.csv.gz
Observed at (1 day ago)
Identifier HEMA
HEMA 010300Z 32019KT CAVOK 30/19 Q1010 NOSIG
From batch tds/metars/production/2022/10/1/h03_m52_metars.cache.csv.gz
Observed at (1 day ago)
Identifier HEMA
HEMA 010200Z 30018KT CAVOK 31/13 Q1009 NOSIG
From batch tds/metars/production/2022/10/1/h02_m24_metars.cache.csv.gz
Observed at (1 day ago)
Identifier HEMA
HEMA 302200Z 30010KT CAVOK 30/09 Q1010 NOSIG
From batch tds/metars/production/2022/9/30/h22_m28_metars.cache.csv.gz
Observed at (1 day ago)
Identifier HEMA
HEMA 302000Z 31006KT CAVOK 29/10 Q1010 NOSIG
From batch tds/metars/production/2022/9/30/h20_m24_metars.cache.csv.gz
Observed at (1 day ago)
Identifier HEMA
HEMA 301900Z 30008KT CAVOK 30/11 Q1010 NOSIG
From batch tds/metars/production/2022/9/30/h19_m27_metars.cache.csv.gz
Observed at (1 day ago)
Identifier HEMA
HEMA 301800Z 31008KT CAVOK 31/21 Q1010 NOSIG
From batch tds/metars/production/2022/9/30/h18_m54_metars.cache.csv.gz
Observed at (1 day ago)
Identifier HEMA
HEMA 301700Z 34012KT CAVOK 32/15 Q1009 NOSIG
From batch tds/metars/production/2022/9/30/h17_m49_metars.cache.csv.gz
Observed at (1 day ago)
Identifier HEMA
HEMA 301600Z 35015KT CAVOK 33/16 Q1009 NOSIG
From batch tds/metars/production/2022/9/30/h16_m52_metars.cache.csv.gz
Observed at (1 day ago)
Identifier HEMA
HEMA 301500Z 34014KT CAVOK 34/16 Q1009 NOSIG
From batch tds/metars/production/2022/9/30/h15_m24_metars.cache.csv.gz
Observed at (1 day ago)
Identifier HEMA
HEMA 301400Z 33019KT CAVOK 36/17 Q1008 NOSIG
From batch tds/metars/production/2022/9/30/h14_m27_metars.cache.csv.gz
Observed at (1 day ago)
Identifier HEMA
HEMA 301300Z 34020KT CAVOK 36/18 Q1009 NOSIG
From batch tds/metars/production/2022/9/30/h13_m59_metars.cache.csv.gz
Observed at (1 day ago)
Identifier HEMA
HEMA 301200Z 35018KT CAVOK 36/18 Q1009 NOSIG
From batch tds/metars/production/2022/9/30/h12_m59_metars.cache.csv.gz
Observed at (2 days ago)
Identifier HEMA
HEMA 301100Z 34021KT CAVOK 36/17 Q1009 NOSIG
From batch tds/metars/production/2022/9/30/h11_m59_metars.cache.csv.gz
Observed at (2 days ago)
Identifier HEMA
HEMA 301000Z 34020KT CAVOK 36/18 Q1010 NOSIG
From batch tds/metars/production/2022/9/30/h10_m20_metars.cache.csv.gz
Observed at (2 days ago)
Identifier HEMA
HEMA 300800Z 34018KT CAVOK 35/18 Q1011 NOSIG
From batch tds/metars/production/2022/9/30/h08_m21_metars.cache.csv.gz
Observed at (2 days ago)
Identifier HEMA
HEMA 300700Z 34020KT CAVOK 33/18 Q1011 NOSIG
From batch tds/metars/production/2022/9/30/h07_m29_metars.cache.csv.gz
Observed at (2 days ago)
Identifier HEMA
HEMA 300600Z 33021KT CAVOK 32/19 Q1010 NOSIG
From batch tds/metars/production/2022/9/30/h06_m59_metars.cache.csv.gz
Observed at (2 days ago)
Identifier HEMA
HEMA 300500Z 30018KT CAVOK 30/18 Q1009 NOSIG
From batch tds/metars/production/2022/9/30/h05_m23_metars.cache.csv.gz
Observed at (2 days ago)
Identifier HEMA
HEMA 300400Z 31020KT CAVOK 29/19 Q1008 NOSIG
From batch tds/metars/production/2022/9/30/h04_m50_metars.cache.csv.gz
Observed at (2 days ago)
Identifier HEMA
HEMA 300300Z 32019KT CAVOK 30/20 Q1008 NOSIG
From batch tds/metars/production/2022/9/30/h03_m59_metars.cache.csv.gz
Observed at (2 days ago)
Identifier HEMA
HEMA 300200Z 29014KT CAVOK 29/16 Q1007 NOSIG
From batch tds/metars/production/2022/9/30/h02_m29_metars.cache.csv.gz
Observed at (2 days ago)
Identifier HEMA
HEMA 300100Z 30015KT CAVOK 30/17 Q1007 NOSIG
From batch tds/metars/production/2022/9/30/h01_m27_metars.cache.csv.gz
Observed at (2 days ago)
Identifier HEMA
HEMA 292300Z 29010KT CAVOK 30/08 Q1007
From batch tds/metars/production/2022/9/29/h23_m29_metars.cache.csv.gz
Observed at (2 days ago)
Identifier HEMA
HEMA 292000Z 32008KT CAVOK 30/10 Q1009 NOSIG
From batch tds/metars/production/2022/9/29/h20_m23_metars.cache.csv.gz
Observed at (2 days ago)
Identifier HEMA
HEMA 291900Z 32010KT CAVOK 30/10 Q1009 NOSIG
From batch tds/metars/production/2022/9/29/h19_m59_metars.cache.csv.gz
Observed at (2 days ago)
Identifier HEMA
HEMA 291700Z 35012KT CAVOK 32/12 Q1008 NOSIG
From batch tds/metars/production/2022/9/29/h17_m22_metars.cache.csv.gz
Observed at (3 days ago)
Identifier HEMA
HEMA 291600Z 35014KT CAVOK 33/13 Q1008 NOSIG
From batch tds/metars/production/2022/9/29/h16_m24_metars.cache.csv.gz
Observed at (3 days ago)
Identifier HEMA
HEMA 291500Z 34013KT CAVOK 34/14 Q1008 NOSIG
From batch tds/metars/production/2022/9/29/h15_m29_metars.cache.csv.gz
Observed at (3 days ago)
Identifier HEMA
HEMA 291400Z 33018KT CAVOK 35/11 Q1007 NOSIG
From batch tds/metars/production/2022/9/29/h14_m29_metars.cache.csv.gz
Observed at (3 days ago)
Identifier HEMA
HEMA 291300Z 34021KT CAVOK 36/11 Q1007 NOSIG
From batch tds/metars/production/2022/9/29/h13_m29_metars.cache.csv.gz
Observed at (3 days ago)
Identifier HEMA
HEMA 291200Z 35020KT CAVOK 36/12 Q1008 NOSIG
From batch tds/metars/production/2022/9/29/h12_m19_metars.cache.csv.gz
Observed at (3 days ago)
Identifier HEMA
HEMA 291000Z 35023KT CAVOK 37/09 Q1008 NOSIG
From batch tds/metars/production/2022/9/29/h10_m24_metars.cache.csv.gz
Observed at (3 days ago)
Identifier HEMA
talk